Time;durP1;ratioP1;P1;durP2;ratioP2;P2;SDS_P1;SDS_P2;PMS_P1;PMS_P2;Temp;Humidity;BMP_temperature;BMP_pressure;BME280_temperature;BME280_humidity;BME280_pressure;Samples;Min_cycle;Max_cycle;Signal;HPM_P1;HPM_P2
2023/05/30 00:01:44;;;;;;;9.10;5.10;;;;;;;11.54;100.00;100875.45;109876;1241;57665;-69
2023/05/30 00:04:13;;;;;;;9.00;5.00;;;;;;;11.54;100.00;100874.09;109851;1242;62149;-69
2023/05/30 00:06:42;;;;;;;10.40;5.20;;;;;;;11.53;100.00;100870.71;109798;1241;61610;-70
2023/05/30 00:09:11;;;;;;;7.00;4.70;;;;;;;11.46;100.00;100874.69;109873;1241;69040;-70
2023/05/30 00:11:40;;;;;;;10.30;5.20;;;;;;;11.39;100.00;100870.81;109805;1241;73502;-69
2023/05/30 00:14:09;;;;;;;7.30;4.70;;;;;;;11.39;100.00;100870.62;109750;1242;62414;-69
2023/05/30 00:16:38;;;;;;;9.10;5.00;;;;;;;11.34;100.00;100862.63;109794;1241;57384;-69
2023/05/30 00:19:07;;;;;;;11.60;4.70;;;;;;;11.40;100.00;100867.42;109892;1241;62154;-69
2023/05/30 00:21:36;;;;;;;8.10;5.00;;;;;;;11.38;100.00;100867.21;109876;1242;61490;-69
2023/05/30 00:24:05;;;;;;;8.60;4.50;;;;;;;11.35;100.00;100868.49;109790;1241;69886;-69
2023/05/30 00:26:34;;;;;;;10.10;4.80;;;;;;;11.32;100.00;100870.97;109817;1243;63576;-69
2023/05/30 00:29:03;;;;;;;8.90;5.00;;;;;;;11.28;100.00;100867.61;109782;1241;62828;-70
2023/05/30 00:31:31;;;;;;;7.70;4.90;;;;;;;11.25;100.00;100864.72;109593;1241;60806;-69
2023/05/30 00:34:01;;;;;;;8.90;4.60;;;;;;;11.23;100.00;100873.43;109772;1241;62799;-69
2023/05/30 00:36:31;;;;;;;11.10;4.30;;;;;;;11.19;100.00;100877.86;109785;1241;72143;-69
2023/05/30 00:38:59;;;;;;;8.70;4.80;;;;;;;11.19;100.00;100883.30;109810;1241;71000;-70
2023/05/30 00:41:28;;;;;;;8.20;5.40;;;;;;;11.20;100.00;100881.66;109685;1241;63778;-69
2023/05/30 00:43:57;;;;;;;8.30;4.80;;;;;;;11.21;100.00;100885.02;109813;1242;57127;-69
2023/05/30 00:46:29;;;;;;;8.20;4.90;;;;;;;11.23;100.00;100888.40;109769;1241;60513;-69
2023/05/30 00:48:59;;;;;;;9.10;5.10;;;;;;;11.22;100.00;100888.27;109566;1241;63008;-70
2023/05/30 00:51:32;;;;;;;7.30;4.60;;;;;;;11.21;100.00;100887.02;109411;1244;71611;-70
2023/05/30 00:54:02;;;;;;;9.80;4.90;;;;;;;11.19;100.00;100890.08;109427;1241;70135;-68
2023/05/30 00:56:31;;;;;;;9.00;4.70;;;;;;;11.15;100.00;100886.36;109408;1241;63803;-69
2023/05/30 00:59:02;;;;;;;9.80;4.70;;;;;;;11.11;100.00;100883.46;109492;1244;57312;-69
2023/05/30 01:01:32;;;;;;;10.70;4.90;;;;;;;11.10;100.00;100882.91;109396;1241;61298;-70
2023/05/30 01:04:01;;;;;;;10.50;5.00;;;;;;;11.05;100.00;100886.50;109327;1241;74132;-69
2023/05/30 01:06:30;;;;;;;8.70;5.20;;;;;;;11.02;100.00;100895.27;109440;1244;62002;-69
2023/05/30 01:09:02;;;;;;;6.70;4.30;;;;;;;11.02;100.00;100891.77;109529;1241;59338;-69
2023/05/30 01:12:01;;;;;;;8.90;4.90;;;;;;;11.03;100.00;100890.20;109352;1247;63256;-69
2023/05/30 01:15:03;;;;;;;11.00;5.10;;;;;;;11.04;100.00;100894.61;109673;1241;63585;-70
2023/05/30 01:17:52;;;;;;;9.10;5.00;;;;;;;11.04;100.00;100894.30;109700;1242;57119;-69
2023/05/30 01:20:24;;;;;;;8.90;4.90;;;;;;;10.99;100.00;100895.52;109576;1241;73613;-69
2023/05/30 01:23:05;;;;;;;10.50;5.10;;;;;;;10.94;100.00;100893.44;109593;1241;62944;-70
2023/05/30 01:26:17;;;;;;;8.20;4.60;;;;;;;10.92;100.00;100895.17;109476;1241;70542;-69
2023/05/30 01:28:49;;;;;;;9.50;4.60;;;;;;;10.88;100.00;100889.48;109626;1241;73598;-69
2023/05/30 01:31:19;;;;;;;8.30;4.60;;;;;;;10.86;100.00;100884.89;109432;1245;57502;-69
2023/05/30 01:33:48;;;;;;;10.30;4.70;;;;;;;10.81;100.00;100884.60;109445;1241;57897;-69
2023/05/30 01:36:19;;;;;;;9.60;5.10;;;;;;;10.76;100.00;100886.20;109440;1241;62842;-69
2023/05/30 01:38:48;;;;;;;10.40;4.90;;;;;;;10.71;100.00;100886.02;109552;1241;72183;-70
2023/05/30 01:41:31;;;;;;;7.90;4.40;;;;;;;10.68;100.00;100887.80;109551;1241;70863;-69
2023/05/30 01:44:15;;;;;;;9.50;4.70;;;;;;;10.64;100.00;100888.27;109380;1245;73282;-69
2023/05/30 01:46:58;;;;;;;7.00;4.80;;;;;;;10.64;100.00;100892.94;109485;1242;63362;-69
2023/05/30 01:49:59;;;;;;;;;;;;;;;10.61;100.00;100893.83;109403;1244;57717;-69
2023/05/30 01:52:36;;;;;;;11.50;4.90;;;;;;;10.53;100.00;100896.48;108993;1241;339164;-69
2023/05/30 01:55:08;;;;;;;11.00;4.80;;;;;;;10.52;100.00;100897.92;109341;1247;61290;-70
2023/05/30 01:57:46;;;;;;;8.80;5.00;;;;;;;10.52;100.00;100899.50;109551;1241;69853;-68
2023/05/30 02:00:16;;;;;;;7.60;4.70;;;;;;;10.49;100.00;100903.20;109409;1241;73394;-69
2023/05/30 02:02:45;;;;;;;11.60;5.30;;;;;;;10.46;100.00;100902.39;109319;1247;57700;-69
2023/05/30 02:05:14;;;;;;;11.20;4.90;;;;;;;10.42;100.00;100897.91;109340;1241;57742;-69
2023/05/30 02:07:43;;;;;;;8.80;4.50;;;;;;;10.41;100.00;100896.45;109552;1241;72642;-69
2023/05/30 02:10:12;;;;;;;8.30;4.50;;;;;;;10.36;100.00;100899.22;109721;1241;72765;-69
2023/05/30 02:12:47;;;;;;;9.10;4.30;;;;;;;10.30;100.00;100895.98;109772;1241;61221;-69
2023/05/30 02:15:16;;;;;;;7.50;4.60;;;;;;;10.24;100.00;100899.16;109664;1241;62290;-68
2023/05/30 02:17:45;;;;;;;8.20;4.50;;;;;;;10.20;100.00;100899.56;109636;1243;57820;-69
2023/05/30 02:20:14;;;;;;;7.40;4.40;;;;;;;10.17;100.00;100900.45;109684;1241;57660;-69
2023/05/30 02:22:43;;;;;;;10.20;4.70;;;;;;;10.19;100.00;100903.31;109701;1243;62146;-69
2023/05/30 02:25:12;;;;;;;10.10;5.00;;;;;;;10.21;100.00;100905.27;109676;1241;72150;-70
2023/05/30 02:27:41;;;;;;;7.50;4.80;;;;;;;10.21;100.00;100904.56;109684;1241;71407;-70
2023/05/30 02:30:12;;;;;;;9.40;4.90;;;;;;;10.20;100.00;100906.05;109682;1244;63004;-69
2023/05/30 02:32:43;;;;;;;9.20;4.90;;;;;;;10.17;100.00;100911.77;109685;1243;62674;-70
2023/05/30 02:35:13;;;;;;;9.90;4.50;;;;;;;10.15;100.00;100910.20;109571;1245;57692;-70
2023/05/30 02:37:43;;;;;;;9.80;4.90;;;;;;;10.15;100.00;100909.13;109505;1241;62991;-69
2023/05/30 02:40:13;;;;;;;11.10;4.90;;;;;;;10.15;100.00;100914.19;109682;1242;71361;-68
2023/05/30 02:42:42;;;;;;;7.70;4.50;;;;;;;10.08;100.00;100910.99;109608;1243;60602;-69
2023/05/30 02:45:11;;;;;;;8.70;5.20;;;;;;;10.01;100.00;100907.30;109632;1244;62447;-68
2023/05/30 02:47:42;;;;;;;12.30;4.90;;;;;;;10.00;100.00;100909.98;109565;1245;62152;-68
2023/05/30 02:50:11;;;;;;;8.60;5.60;;;;;;;10.03;100.00;100906.14;109722;1241;61577;-68
2023/05/30 02:52:39;;;;;;;8.30;5.00;;;;;;;9.99;100.00;100898.55;109721;1241;74682;-68
2023/05/30 02:55:09;;;;;;;10.60;5.60;;;;;;;10.08;100.00;100908.89;109811;1242;73402;-68
2023/05/30 02:58:18;;;;;;;8.40;5.30;;;;;;;10.12;100.00;100913.55;109640;1241;70012;-70
2023/05/30 03:01:06;;;;;;;9.90;5.50;;;;;;;10.16;100.00;100916.95;109724;1241;73920;-69
2023/05/30 03:03:35;;;;;;;8.30;4.60;;;;;;;10.19;100.00;100922.98;109694;1242;57280;-69
2023/05/30 03:06:13;;;;;;;9.20;5.50;;;;;;;10.21;100.00;100920.92;109797;1242;61148;-69
2023/05/30 03:08:58;;;;;;;10.10;5.90;;;;;;;10.27;100.00;100925.10;109698;1241;74078;-69
2023/05/30 03:11:27;;;;;;;8.60;5.10;;;;;;;10.32;100.00;100929.45;109531;1245;61312;-69
2023/05/30 03:13:56;;;;;;;9.40;5.20;;;;;;;10.36;100.00;100927.25;109361;1247;58973;-69
2023/05/30 03:16:26;;;;;;;11.40;5.20;;;;;;;10.40;100.00;100929.21;109621;1242;63198;-69
2023/05/30 03:18:55;;;;;;;8.80;5.10;;;;;;;10.47;100.00;100927.69;109576;1242;57627;-69
2023/05/30 03:21:24;;;;;;;10.50;5.10;;;;;;;10.55;100.00;100930.45;109416;1245;57131;-68
2023/05/30 03:23:53;;;;;;;8.50;4.70;;;;;;;10.64;100.00;100930.88;109564;1244;62777;-69
2023/05/30 03:26:25;;;;;;;8.10;4.60;;;;;;;10.74;100.00;100934.40;109633;1241;71633;-70
2023/05/30 03:28:54;;;;;;;11.50;5.10;;;;;;;10.82;100.00;100933.27;109474;1247;69040;-69
2023/05/30 03:31:27;;;;;;;9.50;5.70;;;;;;;10.93;100.00;100933.07;109507;1241;72739;-69
2023/05/30 03:33:56;;;;;;;15.10;6.80;;;;;;;11.01;100.00;100931.77;109679;1243;63387;-70
2023/05/30 03:36:25;;;;;;;9.50;5.50;;;;;;;11.08;100.00;100934.06;109546;1243;57690;-69
2023/05/30 03:38:56;;;;;;;12.40;5.20;;;;;;;11.15;100.00;100933.41;109639;1241;73678;-71
2023/05/30 03:41:26;;;;;;;10.80;6.00;;;;;;;11.29;100.00;100929.99;109621;1241;72567;-69
2023/05/30 03:43:57;;;;;;;17.50;5.90;;;;;;;11.39;100.00;100927.00;109412;1241;60355;-70
2023/05/30 03:46:26;;;;;;;16.60;5.40;;;;;;;11.54;100.00;100929.75;109595;1241;73796;-69
2023/05/30 03:48:55;;;;;;;20.20;6.60;;;;;;;11.60;100.00;100929.95;109602;1245;57125;-69
2023/05/30 03:51:24;;;;;;;12.90;6.00;;;;;;;11.71;100.00;100930.77;109714;1241;59945;-69
2023/05/30 03:53:53;;;;;;;16.40;6.00;;;;;;;11.80;100.00;100930.41;109510;1241;74099;-69
2023/05/30 03:56:21;;;;;;;17.70;6.60;;;;;;;11.86;100.00;100932.96;109778;1242;72513;-69
2023/05/30 03:58:50;;;;;;;12.50;6.00;;;;;;;11.92;100.00;100934.46;109684;1241;60094;-71
2023/05/30 04:01:19;;;;;;;16.20;6.70;;;;;;;12.05;100.00;100937.34;109749;1241;63278;-70
2023/05/30 04:03:48;;;;;;;15.00;6.20;;;;;;;12.13;100.00;100942.88;109648;1244;62155;-69
2023/05/30 04:06:17;;;;;;;10.70;5.80;;;;;;;12.24;100.00;100942.03;109664;1244;61349;-70
2023/05/30 04:08:46;;;;;;;12.20;7.00;;;;;;;12.29;100.00;100942.49;109692;1241;73993;-69
2023/05/30 04:11:16;;;;;;;14.70;6.70;;;;;;;12.36;100.00;100943.35;109793;1241;61586;-70
2023/05/30 04:13:45;;;;;;;13.30;6.50;;;;;;;12.38;100.00;100941.45;109701;1240;69006;-70
2023/05/30 04:16:14;;;;;;;17.80;7.70;;;;;;;12.44;100.00;100948.84;109757;1241;74420;-69
2023/05/30 04:18:45;;;;;;;14.10;7.10;;;;;;;12.42;100.00;100951.63;109732;1242;62591;-70
2023/05/30 04:21:14;;;;;;;12.10;5.50;;;;;;;12.43;100.00;100958.21;109656;1241;57223;-71
2023/05/30 04:23:44;;;;;;;16.60;6.70;;;;;;;12.45;100.00;100960.13;109632;1241;63068;-69
2023/05/30 04:26:13;;;;;;;18.10;7.00;;;;;;;12.49;100.00;100960.71;109511;1241;61141;-69
2023/05/30 04:28:42;;;;;;;18.70;6.90;;;;;;;12.54;100.00;100956.86;109747;1241;59764;-70
2023/05/30 04:31:11;;;;;;;11.90;6.50;;;;;;;12.62;100.00;100957.15;109625;1241;63296;-69
2023/05/30 04:33:52;;;;;;;17.00;7.00;;;;;;;12.70;100.00;100959.63;109630;1244;62161;-69
2023/05/30 04:36:22;;;;;;;12.50;6.30;;;;;;;12.74;100.00;100956.84;109439;1241;57753;-68
2023/05/30 04:38:52;;;;;;;14.80;6.30;;;;;;;12.80;100.00;100956.54;109514;1241;63715;-67
2023/05/30 04:41:24;;;;;;;14.50;5.70;;;;;;;12.90;100.00;100957.70;109640;1241;60983;-67
2023/05/30 04:43:59;;;;;;;15.40;6.40;;;;;;;12.98;100.00;100957.96;109699;1241;69745;-67
2023/05/30 04:46:29;;;;;;;17.60;6.00;;;;;;;13.07;100.00;100959.36;109650;1241;74143;-67
2023/05/30 04:49:01;;;;;;;13.10;5.70;;;;;;;13.16;100.00;100956.22;109535;1245;57438;-67
2023/05/30 04:51:33;;;;;;;14.30;6.10;;;;;;;13.23;100.00;100958.27;109643;1241;57754;-67
2023/05/30 04:54:02;;;;;;;12.50;5.90;;;;;;;13.31;100.00;100963.44;109551;1241;73477;-67
2023/05/30 04:56:31;;;;;;;13.40;6.10;;;;;;;13.37;100.00;100962.57;109607;1241;61211;-68
2023/05/30 04:59:00;;;;;;;14.80;5.40;;;;;;;13.47;100.00;100964.91;109500;1241;70613;-68
2023/05/30 05:01:29;;;;;;;13.30;5.70;;;;;;;13.56;100.00;100970.02;109584;1241;74153;-68
2023/05/30 05:03:59;;;;;;;13.80;5.90;;;;;;;13.68;100.00;100967.42;109582;1244;63950;-68
2023/05/30 05:06:27;;;;;;;13.90;5.80;;;;;;;13.81;100.00;100965.52;109738;1241;61959;-67
2023/05/30 05:08:56;;;;;;;10.90;4.80;;;;;;;13.94;99.97;100961.85;109613;1241;63156;-67
2023/05/30 05:11:28;;;;;;;8.60;4.70;;;;;;;14.09;98.31;100966.37;109682;1241;71156;-67
2023/05/30 05:13:56;;;;;;;8.80;4.20;;;;;;;14.19;94.15;100967.10;109718;1240;70971;-67
2023/05/30 05:16:25;;;;;;;10.50;4.70;;;;;;;14.29;94.83;100967.61;109705;1241;63695;-70
2023/05/30 05:18:54;;;;;;;9.60;4.50;;;;;;;14.46;94.68;100968.34;109732;1243;57674;-68
2023/05/30 05:21:23;;;;;;;15.90;4.70;;;;;;;14.61;92.76;100967.83;109828;1241;57646;-68
2023/05/30 05:23:52;;;;;;;9.20;4.80;;;;;;;14.69;93.36;100971.99;109736;1243;73453;-69
2023/05/30 05:26:20;;;;;;;9.70;4.10;;;;;;;14.78;93.75;100972.84;109755;1241;71011;-69
2023/05/30 05:28:51;;;;;;;15.30;6.00;;;;;;;14.83;95.17;100973.45;109833;1241;70323;-76
2023/05/30 05:31:20;;;;;;;10.40;5.10;;;;;;;14.93;95.57;100973.95;109782;1242;63200;-77
2023/05/30 05:33:49;;;;;;;10.20;4.80;;;;;;;15.06;94.48;100973.53;109853;1243;57680;-76
2023/05/30 05:36:19;;;;;;;10.40;4.70;;;;;;;15.18;94.07;100974.06;109643;1241;57096;-76
2023/05/30 05:38:47;;;;;;;11.80;5.20;;;;;;;15.31;92.57;100975.22;109767;1241;73587;-75
2023/05/30 05:41:16;;;;;;;13.90;6.50;;;;;;;15.37;92.28;100978.14;109830;1241;61953;-72
2023/05/30 05:43:45;;;;;;;11.20;6.30;;;;;;;15.47;92.17;100980.32;109651;1241;59872;-75
2023/05/30 05:46:14;;;;;;;12.00;6.50;;;;;;;15.56;91.89;100980.49;109757;1241;63221;-74
2023/05/30 05:48:43;;;;;;;15.60;6.60;;;;;;;15.66;91.42;100975.29;109616;1242;57641;-74
2023/05/30 05:51:12;;;;;;;13.60;6.50;;;;;;;15.87;91.52;100968.85;109683;1241;60573;-74
2023/05/30 05:53:40;;;;;;;14.70;6.20;;;;;;;16.10;89.16;100968.87;109702;1241;73296;-75
2023/05/30 05:56:09;;;;;;;19.90;7.70;;;;;;;16.20;89.03;100966.23;109749;1241;61978;-74
2023/05/30 05:58:38;;;;;;;14.00;6.30;;;;;;;16.31;89.49;100969.52;109754;1241;59155;-75
2023/05/30 06:01:07;;;;;;;17.60;7.20;;;;;;;16.50;87.59;100969.89;109639;1244;73021;-75
2023/05/30 06:03:35;;;;;;;24.20;8.20;;;;;;;16.57;88.03;100965.86;109702;1244;61612;-75
2023/05/30 06:06:06;;;;;;;16.20;6.60;;;;;;;16.72;87.92;100964.46;109701;1242;57665;-75
2023/05/30 06:08:36;;;;;;;15.00;6.10;;;;;;;16.91;86.88;100964.17;109599;1241;73853;-74
2023/05/30 06:11:05;;;;;;;18.30;6.90;;;;;;;17.02;86.32;100965.34;109704;1241;61376;-76
2023/05/30 06:13:34;;;;;;;19.40;7.30;;;;;;;17.12;86.24;100965.95;109620;1241;59192;-75
2023/05/30 06:16:03;;;;;;;9.70;5.60;;;;;;;17.34;85.81;100967.87;109720;1242;62858;-75
2023/05/30 06:18:32;;;;;;;14.00;6.20;;;;;;;17.57;83.49;100967.98;109710;1242;57040;-74
2023/05/30 06:21:01;;;;;;;13.00;6.80;;;;;;;17.62;83.61;100968.85;109763;1241;61788;-68
2023/05/30 06:23:30;;;;;;;15.90;6.00;;;;;;;17.68;83.68;100968.77;109729;1241;63552;-71
2023/05/30 06:25:59;;;;;;;15.60;6.40;;;;;;;17.86;83.18;100962.17;109710;1241;60932;-70
2023/05/30 06:28:28;;;;;;;17.80;7.40;;;;;;;18.06;82.55;100961.52;109588;1241;70486;-70
2023/05/30 06:31:00;;;;;;;11.50;5.00;;;;;;;18.19;81.82;100970.63;109482;1241;73322;-70
2023/05/30 06:33:31;;;;;;;9.20;5.40;;;;;;;18.30;81.04;100968.34;109416;1246;61927;-71
2023/05/30 06:36:03;;;;;;;13.40;6.30;;;;;;;18.34;80.79;100967.87;109421;1241;61614;-71
2023/05/30 06:38:33;;;;;;;14.40;5.80;;;;;;;18.36;81.06;100964.39;109514;1241;63368;-70
2023/05/30 06:41:18;;;;;;;11.10;6.10;;;;;;;18.45;81.09;100963.20;109431;1241;61740;-71
2023/05/30 06:43:53;;;;;;;17.40;6.30;;;;;;;18.66;80.30;100965.38;109494;1241;59305;-70
2023/05/30 06:46:26;;;;;;;10.80;6.10;;;;;;;18.75;79.94;100969.34;109503;1244;63317;-70
2023/05/30 06:48:56;;;;;;;;;;;;;;;18.80;79.61;100971.30;109201;1246;61175;-70
2023/05/30 06:51:26;;;;;;;14.90;6.00;;;;;;;18.87;79.37;100975.91;109495;1241;57197;-70
2023/05/30 06:53:55;;;;;;;12.60;6.10;;;;;;;18.96;79.34;100974.80;109435;1241;64009;-71
2023/05/30 06:56:26;;;;;;;14.00;6.00;;;;;;;19.03;79.72;100975.06;109563;1244;62245;-71
2023/05/30 06:58:55;;;;;;;13.60;6.10;;;;;;;19.26;76.73;100971.30;109540;1240;69700;-71
2023/05/30 07:01:24;;;;;;;11.10;5.90;;;;;;;19.33;68.84;100972.64;109613;1242;74284;-70
2023/05/30 07:03:54;;;;;;;12.00;5.70;;;;;;;19.47;67.15;100973.53;109494;1244;61544;-71
2023/05/30 07:06:24;;;;;;;12.30;5.80;;;;;;;19.68;66.64;100969.53;109575;1241;61075;-71
2023/05/30 07:08:53;;;;;;;10.70;5.10;;;;;;;19.89;66.33;100967.55;109658;1241;62770;-71
2023/05/30 07:11:22;;;;;;;10.90;5.30;;;;;;;20.11;65.02;100966.96;109786;1242;61629;-71
2023/05/30 07:13:51;;;;;;;17.50;5.70;;;;;;;20.30;64.24;100967.02;109719;1241;70483;-70
2023/05/30 07:16:20;;;;;;;10.60;5.60;;;;;;;20.40;64.56;100961.50;109714;1241;74876;-71
2023/05/30 07:18:49;;;;;;;8.40;4.70;;;;;;;20.62;64.02;100961.77;109570;1241;60804;-71
2023/05/30 07:21:39;;;;;;;11.00;5.20;;;;;;;20.80;63.54;100958.74;109593;1241;60757;-72
2023/05/30 07:24:11;;;;;;;7.70;5.30;;;;;;;20.84;61.98;100954.51;109615;1241;64528;-71
2023/05/30 07:26:41;;;;;;;10.20;5.30;;;;;;;20.92;61.94;100952.88;109720;1241;71983;-71
2023/05/30 07:29:10;;;;;;;8.50;5.10;;;;;;;21.19;62.59;100948.98;109600;1241;70221;-71
2023/05/30 07:31:39;;;;;;;10.60;4.70;;;;;;;21.35;62.04;100950.70;109767;1243;63893;-71
2023/05/30 07:34:08;;;;;;;11.80;4.60;;;;;;;21.32;59.47;100948.38;109759;1242;57775;-73
2023/05/30 07:36:37;;;;;;;6.50;4.40;;;;;;;21.44;59.92;100951.52;109781;1241;60393;-72
2023/05/30 07:39:05;;;;;;;9.10;4.60;;;;;;;21.53;59.28;100944.48;109662;1241;75457;-72
2023/05/30 07:41:34;;;;;;;12.10;4.20;;;;;;;21.68;58.54;100941.95;109542;1241;72711;-72
2023/05/30 07:44:03;;;;;;;9.10;5.20;;;;;;;21.65;58.35;100941.99;109614;1241;69712;-73
2023/05/30 07:46:32;;;;;;;7.60;4.70;;;;;;;21.84;58.42;100939.39;109783;1241;64679;-73
2023/05/30 07:49:01;;;;;;;7.40;4.50;;;;;;;22.01;58.13;100943.03;109756;1243;58396;-73
2023/05/30 07:51:31;;;;;;;9.90;4.20;;;;;;;22.14;57.68;100944.54;109766;1242;58175;-73
2023/05/30 07:54:00;;;;;;;6.20;4.00;;;;;;;22.27;56.57;100945.40;109801;1241;62740;-73
2023/05/30 07:56:29;;;;;;;6.80;4.40;;;;;;;22.30;55.64;100941.66;109679;1244;61604;-73
2023/05/30 07:58:58;;;;;;;6.40;4.10;;;;;;;22.43;55.65;100943.43;109583;1245;60022;-73
2023/05/30 08:01:27;;;;;;;8.60;4.60;;;;;;;22.56;54.58;100943.32;109690;1241;63124;-72
2023/05/30 08:03:56;;;;;;;7.80;4.40;;;;;;;22.67;55.11;100945.05;109756;1241;58241;-72
2023/05/30 08:06:25;;;;;;;8.80;4.40;;;;;;;22.72;54.70;100944.52;109774;1242;57911;-73
2023/05/30 08:08:54;;;;;;;9.00;4.20;;;;;;;22.81;54.31;100943.98;109596;1245;63703;-72
2023/05/30 08:11:23;;;;;;;9.40;4.70;;;;;;;22.96;53.96;100937.73;109776;1241;71349;-73
2023/05/30 08:13:52;;;;;;;7.10;3.90;;;;;;;23.11;53.43;100932.61;109540;1245;59623;-72
2023/05/30 08:16:23;;;;;;;7.20;4.20;;;;;;;23.23;52.84;100932.38;109545;1241;63283;-73
2023/05/30 08:18:52;;;;;;;8.50;4.20;;;;;;;23.31;52.30;100930.48;109679;1244;57796;-73
2023/05/30 08:21:21;;;;;;;7.50;4.00;;;;;;;23.40;52.38;100930.11;109791;1241;58334;-73
2023/05/30 08:23:50;;;;;;;7.20;4.10;;;;;;;23.51;52.03;100930.80;109753;1241;71655;-72
2023/05/30 08:26:19;;;;;;;10.30;3.90;;;;;;;23.54;51.82;100931.69;109796;1241;73046;-72
2023/05/30 08:28:47;;;;;;;6.00;3.70;;;;;;;23.63;51.96;100932.48;109744;1241;70622;-73
2023/05/30 08:31:17;;;;;;;7.10;3.80;;;;;;;23.63;50.41;100930.30;109738;1244;62900;-73
2023/05/30 08:33:47;;;;;;;8.50;3.60;;;;;;;23.63;49.43;100931.83;109730;1244;58351;-74
2023/05/30 08:36:16;;;;;;;9.50;3.90;;;;;;;23.79;48.52;100930.95;109627;1241;61230;-74
2023/05/30 08:38:45;;;;;;;6.80;4.20;;;;;;;24.01;48.63;100924.09;109743;1241;75098;-72
2023/05/30 08:41:13;;;;;;;7.30;3.60;;;;;;;24.14;48.05;100923.16;109781;1241;72186;-71
2023/05/30 08:43:42;;;;;;;6.50;3.70;;;;;;;24.04;47.05;100923.83;109686;1245;59958;-71
2023/05/30 08:46:12;;;;;;;10.70;4.60;;;;;;;24.08;47.07;100929.27;109692;1244;63251;-77
2023/05/30 08:48:42;;;;;;;6.30;3.80;;;;;;;24.22;46.61;100927.77;109731;1242;61140;-71
2023/05/30 08:51:15;;;;;;;7.50;4.00;;;;;;;24.15;46.70;100920.73;109556;1245;57767;-71
2023/05/30 08:53:52;;;;;;;13.40;5.60;;;;;;;24.26;46.74;100918.60;109748;1243;73539;-71
2023/05/30 08:56:29;;;;;;;8.90;4.20;;;;;;;24.02;47.23;100918.35;109850;1241;71912;-72
2023/05/30 08:59:02;;;;;;;10.70;4.20;;;;;;;23.88;47.23;100914.14;109865;1241;61156;-71
2023/05/30 09:01:31;;;;;;;8.50;3.60;;;;;;;23.76;48.10;100916.23;109798;1242;63235;-71
2023/05/30 09:04:02;;;;;;;9.60;3.80;;;;;;;23.91;47.65;100915.17;109742;1244;58623;-72
2023/05/30 09:06:34;;;;;;;7.00;3.80;;;;;;;23.99;47.58;100916.34;109748;1241;57808;-71
2023/05/30 09:09:03;;;;;;;8.70;3.90;;;;;;;24.07;47.47;100917.39;109767;1241;74378;-71
2023/05/30 09:11:32;;;;;;;8.90;3.70;;;;;;;24.11;47.24;100913.56;109839;1242;61294;-70
2023/05/30 09:14:01;;;;;;;9.90;3.70;;;;;;;24.32;46.48;100912.35;109817;1243;59829;-68
2023/05/30 09:16:30;;;;;;;7.40;3.30;;;;;;;24.61;44.96;100909.09;109758;1241;73808;-69
2023/05/30 09:18:59;;;;;;;7.80;3.20;;;;;;;24.71;43.33;100906.79;109769;1242;61635;-69
2023/05/30 09:21:32;;;;;;;7.10;3.30;;;;;;;25.03;42.39;100900.11;109553;1245;58359;-69
2023/05/30 09:24:05;;;;;;;9.30;3.80;;;;;;;24.92;41.55;100904.08;109546;1245;63573;-70
2023/05/30 09:26:34;;;;;;;5.50;2.70;;;;;;;25.11;42.50;100918.52;109702;1244;60883;-69
2023/05/30 09:29:11;;;;;;;3.40;2.30;;;;;;;25.06;39.32;100912.12;109733;1241;68651;-69
2023/05/30 09:31:40;;;;;;;5.20;2.50;;;;;;;25.06;38.00;100901.21;109628;1241;73880;-70
2023/05/30 09:34:18;;;;;;;6.20;2.60;;;;;;;25.24;39.02;100902.66;109584;1244;57959;-69
2023/05/30 09:36:55;;;;;;;4.70;2.60;;;;;;;25.60;39.77;100910.05;109284;1241;58218;-69
2023/05/30 09:39:26;;;;;;;6.00;2.60;;;;;;;25.60;38.80;100909.61;109572;1241;74990;-70
2023/05/30 09:41:58;;;;;;;6.20;2.80;;;;;;;25.61;38.12;100909.28;109340;1241;72853;-70
2023/05/30 09:44:27;;;;;;;5.70;3.00;;;;;;;25.18;38.43;100905.06;109308;1248;61312;-70
2023/05/30 09:46:58;;;;;;;5.40;2.60;;;;;;;24.96;38.91;100904.84;109534;1244;64008;-69
2023/05/30 09:49:28;;;;;;;7.50;2.50;;;;;;;25.16;37.73;100902.38;109316;1246;61251;-69
2023/05/30 09:51:57;;;;;;;5.90;3.20;;;;;;;25.22;37.36;100898.40;109348;1245;59895;-70
2023/05/30 09:54:27;;;;;;;4.60;2.40;;;;;;;25.30;37.03;100901.51;109524;1241;74723;-69
2023/05/30 09:56:56;;;;;;;7.00;3.00;;;;;;;25.51;36.51;100895.36;109553;1244;62016;-69
2023/05/30 09:59:25;;;;;;;7.60;3.30;;;;;;;25.55;36.67;100895.20;109384;1241;59275;-70
2023/05/30 10:01:54;;;;;;;4.60;2.70;;;;;;;25.61;37.31;100896.36;109574;1241;63373;-70
2023/05/30 10:04:24;;;;;;;6.70;3.40;;;;;;;25.72;37.69;100891.36;109713;1243;57781;-69
2023/05/30 10:06:54;;;;;;;6.40;3.30;;;;;;;25.73;37.28;100888.19;109453;1242;57850;-69
2023/05/30 10:09:24;;;;;;;6.60;3.40;;;;;;;25.78;37.21;100887.36;109659;1241;67309;-70
2023/05/30 10:11:53;;;;;;;5.70;3.40;;;;;;;26.01;36.66;100883.08;109560;1241;62443;-70
2023/05/30 10:14:22;;;;;;;6.10;3.20;;;;;;;26.12;36.92;100882.52;109767;1241;60004;-70
2023/05/30 10:17:02;;;;;;;6.80;4.00;;;;;;;26.12;37.27;100880.38;109759;1241;62762;-69
2023/05/30 10:20:09;;;;;;;5.50;2.80;;;;;;;25.85;37.40;100879.91;109771;1241;60788;-66
2023/05/30 10:22:46;;;;;;;4.50;2.90;;;;;;;25.61;38.10;100880.20;109274;1248;57766;-69
2023/05/30 10:25:18;;;;;;;3.60;2.50;;;;;;;26.07;37.92;100877.84;109526;1246;74965;-69
2023/05/30 10:27:51;;;;;;;6.70;3.00;;;;;;;26.31;37.39;100872.39;109593;1241;61499;-70
2023/05/30 10:30:32;;;;;;;6.50;2.70;;;;;;;26.59;37.24;100877.45;109693;1241;59946;-70
2023/05/30 10:33:09;;;;;;;7.80;3.00;;;;;;;27.07;36.35;100879.79;109650;1241;63455;-71
2023/05/30 10:35:38;;;;;;;6.60;3.10;;;;;;;27.19;35.69;100880.20;109531;1244;61009;-69
2023/05/30 10:38:13;;;;;;;6.60;3.10;;;;;;;27.36;35.68;100883.48;109364;1242;61249;-71
2023/05/30 10:41:07;;;;;;;7.70;3.40;;;;;;;27.64;35.78;100879.15;109382;1241;63691;-70
2023/05/30 10:44:09;;;;;;;7.60;3.10;;;;;;;27.50;35.41;100868.73;109603;1241;61625;-69
2023/05/30 10:47:02;;;;;;;4.20;3.00;;;;;;;27.23;34.90;100868.02;109408;1241;60060;-71
2023/05/30 10:49:32;;;;;;;5.20;3.10;;;;;;;27.20;35.52;100857.87;109712;1241;62820;-69
2023/05/30 10:52:06;;;;;;;6.20;3.10;;;;;;;28.10;35.03;100854.38;109657;1241;57798;-70
2023/05/30 10:54:37;;;;;;;5.70;3.20;;;;;;;28.24;35.08;100849.48;109641;1241;57797;-69
2023/05/30 10:57:32;;;;;;;7.50;3.10;;;;;;;28.32;34.36;100849.90;109578;1241;73575;-69
2023/05/30 11:00:23;;;;;;;5.40;3.00;;;;;;;28.35;33.40;100849.46;109648;1241;72675;-69
2023/05/30 11:02:57;;;;;;;7.90;2.90;;;;;;;27.59;33.53;100852.19;109731;1241;60310;-69
2023/05/30 11:05:31;;;;;;;6.70;2.90;;;;;;;27.67;33.76;100848.05;109741;1241;62389;-69
2023/05/30 11:08:01;;;;;;;6.50;2.90;;;;;;;28.25;34.01;100845.17;109651;1241;57843;-70
2023/05/30 11:10:31;;;;;;;5.20;3.00;;;;;;;28.76;33.20;100848.09;109512;1241;58231;-70
2023/05/30 11:13:09;;;;;;;4.70;3.00;;;;;;;28.69;32.82;100852.52;109669;1241;63694;-69
2023/05/30 11:15:48;;;;;;;5.50;3.10;;;;;;;28.72;33.14;100847.67;109666;1241;61662;-68
2023/05/30 11:18:18;;;;;;;7.00;2.80;;;;;;;28.82;32.30;100851.21;109530;1241;70451;-68
2023/05/30 11:20:52;;;;;;;5.50;2.50;;;;;;;28.88;31.72;100846.85;109633;1241;73510;-70
2023/05/30 11:23:23;;;;;;;6.10;2.50;;;;;;;29.28;29.95;100842.83;109628;1244;58360;-69
2023/05/30 11:25:55;;;;;;;4.30;2.80;;;;;;;29.56;29.68;100842.57;109646;1241;58389;-69
2023/05/30 11:28:35;;;;;;;5.90;2.70;;;;;;;29.82;29.93;100839.30;109747;1242;65087;-69
2023/05/30 11:31:19;;;;;;;4.20;2.70;;;;;;;29.97;28.83;100833.98;109735;1241;72668;-68
2023/05/30 11:33:51;;;;;;;6.70;3.10;;;;;;;28.72;29.71;100826.64;109646;1241;72095;-69